Time;durP1;ratioP1;P1;durP2;ratioP2;P2;SDS_P1;SDS_P2;PMS_P1;PMS_P2;Temp;Humidity;BMP_temperature;BMP_pressure;BME280_temperature;BME280_humidity;BME280_pressure;Samples;Min_cycle;Max_cycle;Signal;HPM_P1;HPM_P2
2023/04/06 00:01:53;;;;;;;35.35;16.85;;;1.80;90.90;;;;;;6215000;22;87977;-76
2023/04/06 00:04:19;;;;;;;34.72;16.88;;;1.70;90.90;;;;;;6215403;22;87487;-78
2023/04/06 00:06:44;;;;;;;34.33;17.25;;;1.70;90.60;;;;;;6215094;22;87361;-78
2023/04/06 00:09:10;;;;;;;33.92;16.25;;;1.70;90.70;;;;;;6216460;22;86802;-78
2023/04/06 00:11:35;;;;;;;30.10;16.33;;;1.70;90.60;;;;;;6188044;22;91341;-78
2023/04/06 00:14:01;;;;;;;30.88;16.17;;;1.60;90.60;;;;;;6188016;22;91207;-78
2023/04/06 00:16:27;;;;;;;32.67;17.00;;;1.60;90.60;;;;;;6215842;22;88191;-79
2023/04/06 00:18:52;;;;;;;33.95;16.73;;;1.60;91.00;;;;;;6214978;22;87951;-78
2023/04/06 00:21:18;;;;;;;33.90;16.85;;;1.60;91.00;;;;;;6188575;22;91570;-80
2023/04/06 00:23:44;;;;;;;29.58;15.75;;;1.50;90.70;;;;;;6214946;22;88296;-80
2023/04/06 00:26:10;;;;;;;33.72;17.20;;;1.50;90.90;;;;;;6188024;22;89019;-78
2023/04/06 00:35:32;;;;;;;32.10;16.73;;;1.30;90.90;;;;;;6213933;22;86377;-79
2023/04/06 00:37:57;;;;;;;28.17;15.20;;;1.30;91.30;;;;;;6211633;22;87615;-78
2023/04/06 00:40:23;;;;;;;31.83;16.48;;;1.30;90.80;;;;;;6187121;22;90383;-78
2023/04/06 00:42:49;;;;;;;31.05;17.10;;;1.30;91.10;;;;;;6186667;22;92828;-78
2023/04/06 00:45:15;;;;;;;30.58;16.23;;;1.20;91.30;;;;;;6216537;22;89148;-79
2023/04/06 00:47:40;;;;;;;29.45;14.73;;;1.10;91.20;;;;;;6216698;22;87274;-78
2023/04/06 00:50:07;;;;;;;31.50;16.33;;;1.10;91.00;;;;;;6216127;22;87810;-79
2023/04/06 01:09:22;;;;;;;35.42;17.60;;;1.00;91.50;;;;;;6215607;22;87426;-78
2023/04/06 01:11:48;;;;;;;32.58;16.90;;;1.00;91.70;;;;;;6216551;22;88548;-79
2023/04/06 01:14:14;;;;;;;33.33;16.17;;;1.00;91.40;;;;;;6189307;22;88342;-80
2023/04/06 01:16:41;;;;;;;33.65;15.90;;;0.90;91.60;;;;;;6190420;22;91678;-79
2023/04/06 01:19:09;;;;;;;32.88;16.50;;;1.00;91.60;;;;;;6215933;22;89741;-79
2023/04/06 01:21:34;;;;;;;29.33;15.80;;;1.00;91.70;;;;;;6216675;22;87588;-78
2023/04/06 01:27:22;;;;;;;33.35;16.65;;;1.00;91.30;;;;;;6215061;22;87301;-78
2023/04/06 01:29:47;;;;;;;32.80;16.27;;;0.90;91.30;;;;;;6216712;22;87742;-79
2023/04/06 01:32:13;;;;;;;38.90;17.83;;;0.90;91.60;;;;;;6216172;22;87460;-79
2023/04/06 01:34:39;;;;;;;31.95;17.00;;;0.90;91.70;;;;;;6217282;22;87334;-78
2023/04/06 01:37:04;;;;;;;36.45;16.88;;;0.90;91.80;;;;;;6215370;22;89189;-79
2023/04/06 01:39:30;;;;;;;34.30;16.98;;;0.90;91.90;;;;;;6216250;22;89087;-78
2023/04/06 01:42:02;;;;;;;32.50;16.58;;;0.80;91.80;;;;;;6216710;22;87105;-78
2023/04/06 01:44:30;;;;;;;32.75;16.25;;;0.80;91.70;;;;;;6216047;22;87508;-78
2023/04/06 01:46:56;;;;;;;37.47;17.05;;;0.80;91.40;;;;;;6215938;22;88152;-78
2023/04/06 01:49:22;;;;;;;39.33;16.88;;;0.90;91.60;;;;;;6189925;22;89126;-77
2023/04/06 01:51:47;;;;;;;34.83;16.58;;;0.80;91.60;;;;;;6188909;22;87301;-79
2023/04/06 01:57:35;;;;;;;36.13;15.68;;;0.80;91.70;;;;;;6215166;22;87175;-78
2023/04/06 02:00:00;;;;;;;39.25;17.88;;;0.80;91.90;;;;;;6216137;22;88482;-77
2023/04/06 02:02:26;;;;;;;41.47;17.98;;;0.80;91.90;;;;;;6215791;22;88322;-78
2023/04/06 02:04:51;;;;;;;38.72;17.90;;;0.90;92.10;;;;;;6217128;22;87340;-78
2023/04/06 02:07:23;;;;;;;32.42;16.80;;;0.90;91.80;;;;;;6122157;23;90248;-78
2023/04/06 02:09:49;;;;;;;37.88;17.90;;;0.90;91.70;;;;;;6122338;23;87187;-79
2023/04/06 02:12:15;;;;;;;44.22;18.00;;;0.90;91.70;;;;;;6122019;23;87287;-78
2023/04/06 02:14:40;;;;;;;34.90;18.52;;;0.90;91.60;;;;;;6097732;23;90441;-78
2023/04/06 02:17:06;;;;;;;36.47;18.17;;;0.90;91.70;;;;;;6122192;23;87558;-78
2023/04/06 02:24:09;;;;;;;35.25;16.98;;;1.00;92.30;;;;;;6118220;23;87631;-77
2023/04/06 02:26:35;;;;;;;39.92;17.20;;;1.00;91.90;;;;;;6091894;23;87413;-78
2023/04/06 02:29:02;;;;;;;33.22;17.38;;;1.00;91.80;;;;;;6090948;23;89943;-78
2023/04/06 02:31:27;;;;;;;34.63;17.73;;;1.10;92.20;;;;;;6093092;23;89016;-78
2023/04/06 02:33:53;;;;;;;35.80;17.98;;;1.10;92.60;;;;;;6092852;23;87579;-78
2023/04/06 02:36:19;;;;;;;37.50;16.85;;;1.10;92.60;;;;;;6068213;23;90631;-78
2023/04/06 02:38:45;;;;;;;40.83;18.85;;;1.10;92.60;;;;;;6133449;22;88154;-78
2023/04/06 02:41:10;;;;;;;37.63;18.35;;;1.10;92.60;;;;;;6155070;22;88499;-78
2023/04/06 02:43:36;;;;;;;32.45;16.25;;;1.20;92.60;;;;;;6155724;22;89794;-77
2023/04/06 02:46:01;;;;;;;36.08;17.23;;;1.20;92.20;;;;;;6155131;22;88041;-78
2023/04/06 02:48:27;;;;;;;35.67;17.13;;;1.30;92.30;;;;;;6154972;22;88005;-77
2023/04/06 02:50:53;;;;;;;42.00;17.90;;;1.40;92.30;;;;;;6155066;22;88235;-77
2023/04/06 03:15:20;;;;;;;34.58;16.45;;;1.60;92.70;;;;;;6155578;22;87768;-77
2023/04/06 03:17:46;;;;;;;38.92;17.25;;;1.60;92.10;;;;;;6155464;22;87759;-77
2023/04/06 03:20:12;;;;;;;37.45;17.52;;;1.60;92.00;;;;;;6155060;22;89563;-76
2023/04/06 03:22:37;;;;;;;30.98;15.95;;;1.60;92.10;;;;;;6155896;22;87473;-77
2023/04/06 03:25:03;;;;;;;35.05;17.00;;;1.60;91.80;;;;;;6166142;22;92327;-77
2023/04/06 03:41:02;;;;;;;33.33;17.50;;;1.70;92.50;;;;;;6185352;22;90494;-77
2023/04/06 03:43:28;;;;;;;38.25;18.73;;;1.70;92.30;;;;;;6184349;22;87468;-76
2023/04/06 03:45:53;;;;;;;34.15;17.67;;;1.70;92.20;;;;;;6183734;22;90661;-77
2023/04/06 03:48:19;;;;;;;33.88;17.83;;;1.70;92.10;;;;;;6185355;22;88734;-77
2023/04/06 03:50:45;;;;;;;40.88;19.80;;;1.70;92.10;;;;;;6184918;22;87807;-77
2023/04/06 03:53:10;;;;;;;32.75;16.40;;;1.70;92.00;;;;;;6183629;22;88333;-77
2023/04/06 03:55:36;;;;;;;36.00;17.98;;;1.70;91.90;;;;;;6184529;22;89444;-76
2023/04/06 03:58:02;;;;;;;32.58;16.83;;;1.70;92.00;;;;;;6184777;22;87622;-77
2023/04/06 04:00:27;;;;;;;36.08;18.80;;;1.80;91.90;;;;;;6184748;22;92616;-77
2023/04/06 04:02:53;;;;;;;34.10;17.45;;;1.80;91.70;;;;;;6185144;22;87260;-77
2023/04/06 04:05:19;;;;;;;37.30;17.45;;;1.80;91.80;;;;;;6183588;22;90531;-77
2023/04/06 04:14:28;;;;;;;34.90;18.02;;;1.80;92.20;;;;;;6184239;22;87306;-77
2023/04/06 04:16:53;;;;;;;33.67;17.25;;;1.80;92.10;;;;;;6185628;22;87276;-77
2023/04/06 04:19:19;;;;;;;39.70;19.02;;;1.80;91.70;;;;;;6185761;22;89858;-77
2023/04/06 04:21:46;;;;;;;34.50;16.80;;;1.80;91.80;;;;;;6185570;22;88792;-77
2023/04/06 04:24:12;;;;;;;37.30;18.70;;;1.90;92.00;;;;;;6188788;22;87459;-77
2023/04/06 04:26:38;;;;;;;36.83;18.08;;;1.90;91.90;;;;;;6189499;22;89124;-79
2023/04/06 04:29:04;;;;;;;34.60;18.42;;;1.90;92.00;;;;;;6215923;22;88474;-78
2023/04/06 04:48:28;;;;;;;43.38;22.48;;;2.10;92.30;;;;;;6216473;22;88230;-76
2023/04/06 04:50:55;;;;;;;56.20;26.65;;;2.10;92.30;;;;;;6189205;22;91018;-77
2023/04/06 04:53:20;;;;;;;60.83;31.75;;;2.10;92.40;;;;;;6215498;22;88754;-76
2023/04/06 04:55:46;;;;;;;64.45;34.05;;;2.20;92.10;;;;;;6217560;22;88300;-77
2023/04/06 04:58:16;;;;;;;63.90;33.40;;;2.20;91.70;;;;;;6216645;22;87323;-76
2023/04/06 05:00:44;;;;;;;58.28;30.15;;;2.30;91.60;;;;;;6188822;22;88545;-76
2023/04/06 05:16:49;;;;;;;51.20;24.92;;;2.60;90.70;;;;;;6215733;22;92683;-78
2023/04/06 05:19:15;;;;;;;50.83;25.85;;;2.60;90.90;;;;;;6216603;22;88681;-78
2023/04/06 05:21:41;;;;;;;52.25;26.80;;;2.60;90.70;;;;;;6216761;22;87585;-77
2023/04/06 05:24:07;;;;;;;53.42;25.35;;;2.70;90.70;;;;;;6215775;22;87589;-77
2023/04/06 05:26:32;;;;;;;51.55;28.15;;;2.70;90.70;;;;;;6188499;22;91351;-77
2023/04/06 05:28:58;;;;;;;54.90;29.73;;;2.70;91.10;;;;;;6216061;22;87467;-77
2023/04/06 05:31:24;;;;;;;54.95;26.98;;;2.80;91.20;;;;;;6190087;22;87528;-77
2023/04/06 05:33:50;;;;;;;54.72;28.88;;;2.80;91.10;;;;;;6216981;22;87337;-79
2023/04/06 05:46:21;;;;;;;55.10;27.13;;;3.10;90.60;;;;;;6216523;22;90578;-80
2023/04/06 05:48:46;;;;;;;42.53;21.50;;;3.10;90.60;;;;;;6188806;22;91729;-77
2023/04/06 05:51:12;;;;;;;37.38;19.80;;;3.20;90.00;;;;;;6215960;22;88375;-78
2023/04/06 05:53:38;;;;;;;47.95;21.92;;;3.30;88.90;;;;;;6216926;22;88908;-80
2023/04/06 06:19:36;;;;;;;33.92;15.18;;;4.10;87.20;;;;;;6216435;22;87443;-76
2023/04/06 06:22:02;;;;;;;39.70;16.65;;;4.20;87.60;;;;;;6215502;22;87376;-77
2023/04/06 06:24:28;;;;;;;38.28;15.85;;;4.30;87.90;;;;;;6215962;22;88511;-76
2023/04/06 06:26:53;;;;;;;33.22;17.75;;;4.40;88.20;;;;;;6216120;22;87662;-76
2023/04/06 06:29:19;;;;;;;33.20;16.45;;;4.50;88.50;;;;;;6216642;22;87437;-76
2023/04/06 06:31:45;;;;;;;29.88;14.90;;;4.50;88.50;;;;;;6217510;22;86900;-76
2023/04/06 06:34:12;;;;;;;27.85;15.43;;;4.60;87.00;;;;;;6188510;22;91541;-76
2023/04/06 06:40:13;;;;;;;27.83;13.73;;;4.80;82.60;;;;;;6216658;22;88320;-82
2023/04/06 06:42:39;;;;;;;35.28;15.68;;;5.00;81.80;;;;;;6213844;22;87985;-78
2023/04/06 06:45:07;;;;;;;25.30;13.95;;;5.00;82.80;;;;;;6213605;22;87822;-80
2023/04/06 06:47:32;;;;;;;26.15;13.68;;;5.10;80.10;;;;;;6213175;22;90592;-77
2023/04/06 06:49:58;;;;;;;26.17;13.35;;;5.20;79.90;;;;;;6212897;22;87257;-77
2023/04/06 06:52:24;;;;;;;26.70;14.68;;;5.30;80.00;;;;;;6187482;22;90656;-76
2023/04/06 06:54:49;;;;;;;28.73;14.90;;;5.50;80.60;;;;;;6212082;22;88505;-77
2023/04/06 06:57:15;;;;;;;32.75;14.13;;;5.60;78.30;;;;;;6216104;22;87825;-77
2023/04/06 06:59:41;;;;;;;23.83;13.50;;;5.70;78.80;;;;;;6216081;22;87790;-77
2023/04/06 07:02:07;;;;;;;23.65;13.30;;;5.70;76.10;;;;;;6214539;22;87117;-76
2023/04/06 07:04:32;;;;;;;30.50;14.10;;;5.90;78.70;;;;;;6215378;22;88536;-76
2023/04/06 07:06:58;;;;;;;25.92;13.05;;;6.00;78.10;;;;;;6215403;22;89038;-78
2023/04/06 07:09:26;;;;;;;27.33;13.52;;;6.10;79.80;;;;;;6188855;22;87691;-78
2023/04/06 07:11:51;;;;;;;26.23;13.73;;;6.20;79.80;;;;;;6215692;22;87542;-77
2023/04/06 07:14:17;;;;;;;32.13;13.88;;;6.40;79.50;;;;;;6214970;22;88552;-77
2023/04/06 07:32:02;;;;;;;26.48;13.85;;;7.00;76.50;;;;;;6180664;22;88033;-78
2023/04/06 07:34:29;;;;;;;23.35;12.77;;;7.20;77.50;;;;;;6155660;22;88236;-79
2023/04/06 07:36:56;;;;;;;23.45;13.30;;;7.40;75.00;;;;;;6155298;22;87305;-77
2023/04/06 07:39:22;;;;;;;21.98;13.10;;;7.40;74.60;;;;;;6154270;22;88299;-77
2023/04/06 07:41:47;;;;;;;22.42;12.85;;;7.50;75.00;;;;;;6153401;22;90067;-76
2023/04/06 07:44:13;;;;;;;24.13;12.57;;;7.60;73.40;;;;;;6156499;22;87421;-76
2023/04/06 07:46:39;;;;;;;21.17;12.55;;;7.60;75.30;;;;;;6158296;22;87516;-77
2023/04/06 07:49:04;;;;;;;22.45;12.77;;;7.70;73.90;;;;;;6152918;22;91224;-77
2023/04/06 07:51:30;;;;;;;20.50;11.95;;;7.70;73.90;;;;;;6154795;22;88305;-78
2023/04/06 07:53:56;;;;;;;25.80;13.13;;;7.80;73.00;;;;;;6155606;22;86994;-78
2023/04/06 07:56:22;;;;;;;26.10;13.18;;;7.90;72.10;;;;;;6155169;22;87379;-78
2023/04/06 08:05:36;;;;;;;23.38;12.48;;;8.10;72.90;;;;;;6155557;22;87238;-78
2023/04/06 08:08:02;;;;;;;27.92;12.57;;;8.20;72.20;;;;;;6154478;22;87416;-78
2023/04/06 08:10:28;;;;;;;30.35;12.73;;;8.30;72.30;;;;;;6155911;22;89073;-77
2023/04/06 08:12:54;;;;;;;23.17;11.63;;;8.40;71.60;;;;;;6155385;22;88385;-79
2023/04/06 08:15:19;;;;;;;21.75;11.68;;;8.40;69.90;;;;;;6154697;22;88816;-78
2023/04/06 08:17:57;;;;;;;19.38;11.23;;;8.60;69.90;;;;;;6155093;22;89813;-78
2023/04/06 08:20:22;;;;;;;25.10;12.15;;;8.60;69.30;;;;;;6154394;22;88777;-78
2023/04/06 08:22:48;;;;;;;22.15;11.15;;;8.70;68.30;;;;;;6156043;22;87596;-78
2023/04/06 08:25:14;;;;;;;24.38;12.43;;;8.80;67.90;;;;;;6152184;22;88429;-79
2023/04/06 08:27:40;;;;;;;24.50;11.85;;;8.90;68.70;;;;;;6153468;22;90655;-79
2023/04/06 08:49:09;;;;;;;21.73;11.18;;;9.40;64.40;;;;;;6193739;22;86766;-78
2023/04/06 08:51:37;;;;;;;25.88;11.82;;;9.40;63.50;;;;;;6188713;22;87299;-79
2023/04/06 08:54:03;;;;;;;23.98;11.38;;;9.50;64.90;;;;;;6214781;22;87550;-79
2023/04/06 08:56:28;;;;;;;22.45;11.23;;;9.60;65.30;;;;;;6214358;22;89858;-78
2023/04/06 08:59:07;;;;;;;19.83;10.45;;;9.60;63.90;;;;;;6214590;22;89029;-78
2023/04/06 09:01:36;;;;;;;22.50;10.82;;;9.70;65.00;;;;;;6216421;22;87172;-79
2023/04/06 09:04:04;;;;;;;22.50;11.52;;;9.70;65.70;;;;;;6216416;22;87665;-79
2023/04/06 09:06:30;;;;;;;20.38;10.93;;;9.80;66.80;;;;;;6190212;22;92086;-79
2023/04/06 09:08:57;;;;;;;17.45;10.48;;;9.80;66.00;;;;;;6217068;22;87940;-79
2023/04/06 09:11:23;;;;;;;20.30;10.18;;;9.80;66.00;;;;;;6218137;22;87456;-79
2023/04/06 09:13:52;;;;;;;19.25;9.88;;;9.80;67.90;;;;;;6222759;22;87901;-81
2023/04/06 09:16:18;;;;;;;17.65;10.20;;;9.70;65.80;;;;;;6230425;22;87491;-81
2023/04/06 09:18:44;;;;;;;17.02;9.50;;;9.70;66.30;;;;;;6234501;22;87438;-81
2023/04/06 09:21:11;;;;;;;21.25;9.50;;;9.70;67.40;;;;;;6231324;22;88442;-80
2023/04/06 09:23:37;;;;;;;17.95;9.27;;;9.70;67.00;;;;;;6224896;22;87314;-80
2023/04/06 09:26:06;;;;;;;13.43;8.05;;;9.70;67.30;;;;;;6225903;22;88820;-80
2023/04/06 09:28:53;;;;;;;21.77;9.60;;;9.70;68.90;;;;;;6198314;22;89447;-85
2023/04/06 09:31:26;;;;;;;17.77;10.23;;;9.70;70.70;;;;;;6204531;22;86732;-86
2023/04/06 09:33:52;;;;;;;;;;;9.60;72.20;;;;;;6188308;22;87508;-83
2023/04/06 09:36:19;;;;;;;18.38;9.95;;;9.60;74.50;;;;;;6205052;22;87747;-81
2023/04/06 09:39:01;;;;;;;19.83;9.95;;;9.50;74.10;;;;;;6201139;22;88726;-81
2023/04/06 09:41:35;;;;;;;23.63;8.88;;;9.40;75.60;;;;;;6201391;22;86910;-81
2023/04/06 09:44:09;;;;;;;14.55;9.07;;;9.30;75.70;;;;;;6190972;22;88090;-82
2023/04/06 09:46:37;;;;;;;18.50;9.18;;;9.20;77.20;;;;;;6210683;22;88788;-83
2023/04/06 09:49:04;;;;;;;18.38;9.43;;;9.20;78.00;;;;;;6208624;22;89718;-82
2023/04/06 09:52:11;;;;;;;19.23;9.45;;;9.10;78.10;;;;;;6234732;22;87381;-80
2023/04/06 09:54:37;;;;;;;14.98;8.68;;;9.00;78.00;;;;;;6107600;23;87161;-81
2023/04/06 09:57:25;;;;;;;15.07;8.23;;;9.00;79.40;;;;;;6110214;23;88698;-81
2023/04/06 09:59:55;;;;;;;18.98;10.15;;;9.10;77.90;;;;;;6108417;23;87488;-82
2023/04/06 10:02:47;;;;;;;13.80;8.85;;;9.10;77.90;;;;;;6110494;23;87591;-81
2023/04/06 10:05:17;;;;;;;19.63;10.93;;;9.10;79.20;;;;;;6021377;23;86620;-80
2023/04/06 10:07:44;;;;;;;18.67;10.20;;;9.20;80.60;;;;;;6019572;23;87741;-80
2023/04/06 10:10:11;;;;;;;18.58;10.02;;;9.20;80.00;;;;;;6017823;23;87650;-84
2023/04/06 10:12:39;;;;;;;18.15;9.60;;;9.20;78.60;;;;;;5994237;23;88060;-80
2023/04/06 10:15:05;;;;;;;17.33;9.52;;;9.20;81.70;;;;;;6023781;23;89500;-80
2023/04/06 10:17:31;;;;;;;14.85;9.15;;;9.20;82.10;;;;;;5991980;23;87913;-79
2023/04/06 10:20:16;;;;;;;14.77;8.70;;;9.20;83.50;;;;;;6009447;23;88011;-79
2023/04/06 10:23:15;;;;;;;15.45;8.70;;;9.20;83.40;;;;;;6009529;23;87150;-79
2023/04/06 10:26:01;;;;;;;16.17;9.65;;;9.10;82.50;;;;;;6062745;23;91989;-79
2023/04/06 10:28:35;;;;;;;18.48;9.32;;;9.10;84.20;;;;;;6099843;23;91381;-79
2023/04/06 10:31:10;;;;;;;16.88;9.10;;;9.10;82.30;;;;;;6073558;23;89237;-80
2023/04/06 10:33:36;;;;;;;15.48;9.02;;;9.10;84.60;;;;;;6096439;23;87593;-74
2023/04/06 10:36:15;;;;;;;15.73;9.20;;;9.10;83.10;;;;;;6094579;23;87755;-80
2023/04/06 10:38:42;;;;;;;17.65;9.15;;;9.10;83.70;;;;;;6095421;23;89427;-78
2023/04/06 10:41:11;;;;;;;17.73;9.68;;;9.10;84.50;;;;;;6111686;22;88347;-78
2023/04/06 10:43:39;;;;;;;17.90;8.52;;;9.10;85.00;;;;;;6224359;22;86889;-81
2023/04/06 10:46:07;;;;;;;15.20;7.97;;;9.10;86.00;;;;;;6218124;22;87204;-77
2023/04/06 10:48:40;;;;;;;12.98;7.93;;;9.00;81.80;;;;;;6216461;22;89079;-78
2023/04/06 10:51:14;;;;;;;12.07;7.53;;;9.00;84.30;;;;;;6219793;22;87718;-78
2023/04/06 10:53:45;;;;;;;13.13;7.10;;;8.90;84.40;;;;;;6217644;22;87368;-78
2023/04/06 10:56:13;;;;;;;12.80;6.68;;;8.90;85.30;;;;;;6221434;22;87726;-78
2023/04/06 10:58:44;;;;;;;14.10;8.10;;;9.00;83.70;;;;;;6225904;22;89339;-78
2023/04/06 11:01:11;;;;;;;13.65;7.30;;;9.00;85.20;;;;;;6209202;22;88851;-83
2023/04/06 11:03:44;;;;;;;12.95;7.63;;;9.00;85.70;;;;;;6229649;22;88366;-81
2023/04/06 11:06:10;;;;;;;13.07;7.80;;;9.00;83.90;;;;;;6212380;22;89629;-82
2023/04/06 11:08:37;;;;;;;14.57;7.68;;;9.00;86.70;;;;;;6212050;22;90466;-78
2023/04/06 11:11:15;;;;;;;11.77;7.40;;;9.00;88.10;;;;;;6156457;22;89758;-81
2023/04/06 11:13:45;;;;;;;14.95;7.60;;;9.00;87.00;;;;;;6136900;22;87652;-80
2023/04/06 11:16:31;;;;;;;9.50;6.45;;;9.00;86.10;;;;;;6136881;22;90191;-80
2023/04/06 11:18:59;;;;;;;15.00;7.22;;;8.90;83.20;;;;;;6163069;22;87429;-83
2023/04/06 11:21:38;;;;;;;13.65;7.88;;;8.90;85.60;;;;;;6174359;22;87017;-82
2023/04/06 11:24:11;;;;;;;13.25;7.05;;;8.90;85.20;;;;;;6144335;22;87036;-81
2023/04/06 11:26:43;;;;;;;16.13;9.07;;;8.90;85.80;;;;;;6148824;22;87141;-80
2023/04/06 11:29:09;;;;;;;12.98;7.05;;;8.90;86.00;;;;;;6132347;22;92713;-80
2023/04/06 11:31:40;;;;;;;14.40;8.13;;;8.90;87.10;;;;;;6135549;22;91000;-81
2023/04/06 11:34:18;;;;;;;12.93;7.40;;;8.90;88.20;;;;;;6161896;22;87544;-84
2023/04/06 11:36:45;;;;;;;15.80;8.60;;;8.90;88.40;;;;;;6164256;22;87495;-84
2023/04/06 11:39:13;;;;;;;13.35;8.13;;;8.90;89.90;;;;;;6150264;22;91413;-82
2023/04/06 11:41:39;;;;;;;16.17;7.90;;;8.90;89.80;;;;;;6150411;22;90154;-82
2023/04/06 11:44:06;;;;;;;13.98;8.27;;;9.00;90.00;;;;;;6147694;22;86946;-83
2023/04/06 11:46:32;;;;;;;17.00;8.18;;;9.00;89.70;;;;;;6149555;22;88976;-83
2023/04/06 11:49:00;;;;;;;12.05;6.25;;;9.10;88.90;;;;;;6175022;22;87266;-81
2023/04/06 11:51:26;;;;;;;10.90;6.88;;;9.10;86.10;;;;;;6174288;22;87674;-81
2023/04/06 11:53:53;;;;;;;10.93;6.93;;;9.10;87.70;;;;;;6174113;22;88039;-81
2023/04/06 11:56:28;;;;;;;10.73;6.60;;;9.10;86.30;;;;;;6175217;22;87081;-81
2023/04/06 11:58:56;;;;;;;11.00;6.20;;;9.00;86.50;;;;;;6173356;22;87506;-79
2023/04/06 12:01:22;;;;;;;11.75;6.72;;;9.00;89.20;;;;;;6175002;22;87510;-81
2023/04/06 12:03:58;;;;;;;9.88;6.55;;;9.00;86.90;;;;;;6177154;22;86248;-80
2023/04/06 12:06:25;;;;;;;10.30;6.53;;;9.10;89.50;;;;;;6148616;22;89072;-81
2023/04/06 12:08:51;;;;;;;12.50;6.78;;;9.10;89.00;;;;;;6172707;22;87683;-81
2023/04/06 12:11:18;;;;;;;10.93;7.03;;;9.20;88.80;;;;;;6171069;22;87397;-81
2023/04/06 12:13:44;;;;;;;13.43;6.30;;;9.20;88.50;;;;;;6148770;22;86761;-82
2023/04/06 12:16:10;;;;;;;13.60;8.38;;;9.20;87.60;;;;;;6175697;22;86755;-81
2023/04/06 12:18:36;;;;;;;15.38;7.32;;;9.30;90.20;;;;;;6158812;22;88788;-82
2023/04/06 12:21:05;;;;;;;10.18;6.13;;;9.30;89.60;;;;;;6173673;22;87725;-81
2023/04/06 12:23:38;;;;;;;19.42;8.88;;;9.30;88.10;;;;;;6157755;22;86729;-81
2023/04/06 12:26:04;;;;;;;14.20;7.20;;;9.40;90.30;;;;;;6147008;22;89468;-82
2023/04/06 12:28:30;;;;;;;13.57;7.53;;;9.50;88.60;;;;;;6160110;22;87689;-80
2023/04/06 12:30:55;;;;;;;15.18;7.15;;;9.50;87.00;;;;;;6144422;22;88349;-80
2023/04/06 12:33:21;;;;;;;10.77;7.47;;;9.50;88.20;;;;;;6130534;22;87655;-81
2023/04/06 12:35:46;;;;;;;12.27;7.18;;;9.40;86.90;;;;;;6157448;22;87347;-82
2023/04/06 12:38:12;;;;;;;12.98;7.63;;;9.40;87.40;;;;;;6132108;22;90097;-82
2023/04/06 12:40:38;;;;;;;13.55;8.20;;;9.30;86.50;;;;;;6161122;22;88355;-80
2023/04/06 12:43:04;;;;;;;15.55;9.02;;;9.30;90.00;;;;;;6133721;22;88358;-80
2023/04/06 12:45:33;;;;;;;12.52;7.70;;;9.30;90.60;;;;;;6138124;22;89274;-81
2023/04/06 12:53:09;;;;;;;13.50;8.35;;;9.30;89.80;;;;;;6198483;22;87974;-81
2023/04/06 12:55:35;;;;;;;13.73;8.45;;;9.20;89.30;;;;;;6175009;22;89071;-86
2023/04/06 12:58:01;;;;;;;13.52;8.60;;;9.20;90.00;;;;;;6204173;22;87926;-83
2023/04/06 13:00:27;;;;;;;15.73;8.63;;;9.20;90.70;;;;;;6204031;22;88966;-82
2023/04/06 13:02:53;;;;;;;13.30;8.63;;;9.20;89.90;;;;;;6203509;22;86528;-81
2023/04/06 13:05:18;;;;;;;12.73;8.27;;;9.10;90.30;;;;;;6202166;22;86597;-82
2023/04/06 13:07:46;;;;;;;16.63;8.57;;;9.10;89.60;;;;;;6202238;22;88250;-82
2023/04/06 13:10:11;;;;;;;13.27;7.90;;;9.10;90.40;;;;;;6203357;22;88207;-86
2023/04/06 13:12:37;;;;;;;12.57;8.52;;;9.10;89.50;;;;;;6203576;22;86246;-82
2023/04/06 13:15:03;;;;;;;11.95;7.50;;;9.10;90.20;;;;;;6201082;22;86726;-81
2023/04/06 13:17:37;;;;;;;13.10;7.72;;;9.20;88.90;;;;;;6200310;22;87525;-82
2023/04/06 13:20:03;;;;;;;12.65;8.35;;;9.20;89.90;;;;;;6163010;22;90369;-78
2023/04/06 13:22:34;;;;;;;13.77;8.60;;;9.30;90.20;;;;;;6174262;22;88693;-83
2023/04/06 13:25:01;;;;;;;15.48;9.55;;;9.40;90.30;;;;;;6175358;22;88647;-83
2023/04/06 15:45:14;;;;;;;21.35;10.90;;;8.80;94.30;;;;;;6169971;22;88977;-81
2023/04/06 15:48:00;;;;;;;23.33;10.32;;;8.70;94.60;;;;;;6138398;22;87187;-82
2023/04/06 15:50:26;;;;;;;17.95;10.73;;;8.70;94.80;;;;;;6142092;23;87708;-82
2023/04/06 15:52:52;;;;;;;17.85;11.73;;;8.70;95.00;;;;;;6137322;23;87358;-84
2023/04/06 15:55:19;;;;;;;18.20;11.30;;;8.70;95.10;;;;;;6139209;23;87339;-81
2023/04/06 17:41:19;;;;;;;13.52;8.43;;;9.50;93.70;;;;;;6202861;22;89422;-82
2023/04/06 18:23:10;;;;;;;15.88;8.00;;;9.50;93.60;;;;;;6157955;22;89218;31
2023/04/06 18:25:59;;;;;;;16.13;7.82;;;9.50;93.50;;;;;;6137575;22;91034;-81
2023/04/06 18:41:25;;;;;;;11.52;7.78;;;9.50;93.30;;;;;;6151850;22;86862;-82
2023/04/06 18:43:51;;;;;;;12.32;7.75;;;9.50;93.30;;;;;;6152850;22;88227;-83
2023/04/06 18:59:16;;;;;;;13.00;7.85;;;9.50;93.50;;;;;;6136227;22;88662;-81
2023/04/06 19:06:54;;;;;;;14.48;7.95;;;9.50;93.60;;;;;;6119248;22;86552;-82
2023/04/06 19:09:19;;;;;;;19.92;8.20;;;9.50;93.70;;;;;;6119451;23;87814;-82
2023/04/06 19:11:49;;;;;;;14.20;8.38;;;9.50;93.60;;;;;;6119607;23;86546;-81
2023/04/06 19:14:16;;;;;;;17.45;8.85;;;9.50;93.60;;;;;;6118415;22;90594;-81
2023/04/06 19:16:50;;;;;;;17.85;8.20;;;9.50;93.80;;;;;;6119235;23;88338;-82
2023/04/06 19:19:29;;;;;;;15.20;9.05;;;9.50;93.90;;;;;;6029193;23;90493;-81
2023/04/06 19:21:56;;;;;;;17.85;9.13;;;9.50;94.00;;;;;;6014968;23;87056;-82
2023/04/06 19:24:24;;;;;;;13.18;8.65;;;9.50;93.90;;;;;;6004844;23;86871;-81
2023/04/06 19:26:51;;;;;;;20.15;10.13;;;9.50;94.00;;;;;;5981772;23;88494;-83
2023/04/06 19:29:27;;;;;;;;;;;;;;;;;;;;;
2023/04/06 19:31:54;;;;;;;17.65;9.93;;;9.50;94.00;;;;;;6054961;23;111038;-82
2023/04/06 19:34:21;;;;;;;15.68;8.98;;;9.50;94.10;;;;;;6031073;23;88222;-82
2023/04/06 19:36:50;;;;;;;16.33;9.30;;;9.50;94.10;;;;;;5955939;23;88490;-82
2023/04/06 19:39:21;;;;;;;13.48;8.57;;;9.50;94.00;;;;;;6025964;23;88130;-83
2023/04/06 19:41:50;;;;;;;16.58;9.80;;;9.50;94.00;;;;;;5977766;23;86907;-83
2023/04/06 19:44:37;;;;;;;19.15;10.38;;;9.50;94.20;;;;;;5932592;23;86505;-81
2023/04/06 19:47:03;;;;;;;20.15;9.88;;;9.50;94.20;;;;;;5912513;23;88694;-81
2023/04/06 19:49:49;;;;;;;22.13;10.43;;;9.50;94.10;;;;;;5936209;23;86895;-81
2023/04/06 19:52:16;;;;;;;19.70;10.50;;;9.50;94.10;;;;;;5933458;23;88096;-82
2023/04/06 19:54:45;;;;;;;15.43;9.30;;;9.50;94.30;;;;;;5968086;23;88742;-82
2023/04/06 19:57:31;;;;;;;23.50;10.80;;;9.50;94.30;;;;;;5970969;23;88782;-82
2023/04/06 19:59:57;;;;;;;18.48;10.63;;;9.50;94.40;;;;;;5915167;23;90236;-82
2023/04/06 20:02:44;;;;;;;18.70;10.15;;;9.50;94.50;;;;;;5887615;23;90530;-82
2023/04/06 20:05:30;;;;;;;20.15;10.70;;;9.50;94.60;;;;;;5891890;23;87167;-81
2023/04/06 20:07:57;;;;;;;22.65;11.50;;;9.50;94.80;;;;;;5943736;23;90961;-81
2023/04/06 20:10:44;;;;;;;20.48;11.35;;;9.50;94.80;;;;;;5889214;24;86801;-82
2023/04/06 20:13:30;;;;;;;21.52;11.65;;;9.50;94.80;;;;;;5767568;24;87327;-80
2023/04/06 20:15:57;;;;;;;22.70;12.15;;;9.50;94.90;;;;;;5786180;24;87675;-82
2023/04/06 20:18:25;;;;;;;21.92;11.93;;;9.50;95.00;;;;;;5793878;24;90674;-82
2023/04/06 20:20:53;;;;;;;27.05;13.93;;;9.50;95.20;;;;;;5777334;24;87805;-81
2023/04/06 20:23:55;;;;;;;25.63;14.50;;;9.40;95.30;;;;;;5791068;24;86845;-83
2023/04/06 20:26:44;;;;;;;26.35;14.10;;;9.50;95.50;;;;;;5831425;24;87610;-83
2023/04/06 20:29:11;;;;;;;27.23;14.57;;;9.40;95.80;;;;;;5801697;24;89855;-83
2023/04/06 20:32:31;;;;;;;31.52;15.82;;;9.40;95.90;;;;;;5831250;24;88998;-81
2023/04/06 20:35:22;;;;;;;26.80;15.35;;;9.40;96.10;;;;;;5749594;24;88432;-82
2023/04/06 22:21:56;;;;;;;36.55;19.02;;;9.40;97.00;;;;;;6143481;22;89688;31
2023/04/06 22:24:22;;;;;;;37.38;19.95;;;9.40;96.90;;;;;;6076119;23;86978;-82
2023/04/06 22:26:48;;;;;;;32.30;17.65;;;9.40;96.90;;;;;;6114848;22;87084;-82
2023/04/06 22:29:15;;;;;;;41.00;18.50;;;9.40;96.70;;;;;;6122349;23;87888;-81
2023/04/06 22:31:41;;;;;;;30.70;17.15;;;9.40;96.60;;;;;;6099128;23;89412;-83
2023/04/06 22:34:08;;;;;;;31.88;17.73;;;9.40;96.40;;;;;;6097271;23;86785;-83
2023/04/06 22:36:34;;;;;;;32.60;17.38;;;9.40;96.40;;;;;;6087216;23;86574;-83
2023/04/06 22:39:41;;;;;;;30.88;17.30;;;9.40;96.40;;;;;;6031286;23;87075;-82
2023/04/06 22:42:28;;;;;;;34.47;17.98;;;9.40;96.30;;;;;;5999952;23;86811;-83
2023/04/06 22:44:56;;;;;;;31.70;18.20;;;9.40;96.40;;;;;;5954153;23;87629;-81
2023/04/06 22:48:02;;;;;;;34.72;17.30;;;9.30;96.30;;;;;;6003266;23;87149;-82
2023/04/06 22:50:48;;;;;;;27.58;16.40;;;9.40;96.30;;;;;;5878894;23;87172;-83
2023/04/06 22:53:37;;;;;;;31.20;16.80;;;9.40;96.20;;;;;;5858749;24;86752;-83
2023/04/06 22:56:12;;;;;;;35.78;17.65;;;9.30;96.20;;;;;;5877927;24;86318;-82
2023/04/06 22:59:01;;;;;;;35.40;17.23;;;9.30;96.20;;;;;;5861569;24;89070;-83
2023/04/06 23:01:28;;;;;;;38.78;18.77;;;9.30;96.30;;;;;;5809001;24;93806;-83